Airfield :
LOGIN :

Register | Disclaimer

   EN    FR    IT 

 










Legend :    VFR   Marginal VFR   IFR   Intensive IFR   Very Intensive IFR
Visi :
Ceiling :
>= 8 km
>= 3000ft
5 to 8 km
1000 to 3000 ft
1500m to 5 km
500 to 1000 ft
800 to 1500m
200 to 500 ft
< 800m
< 200 ft
Symbols :   Thunderstorms  Fog  Heavy snow  Heavy precipitations  Wind > 20 kt
SIGMETs :     Misc.  Thunderstorms  Icing  Turbulence  Mountain Waves  Volcanic Ashes






- Airport Elevation : 16 ft
- IATA code : SDL


ESNN - Sundsvall-Härnösand

CURRENT METAR :
  • 071520Z AUTO 29011KT 9999 SCT059/// 19/06 Q1016

EXPIRED METARs :
  • 071450Z AUTO 29012KT 9999 FEW057/// 18/04 Q1016
  • 071420Z AUTO 29010KT 240V340 9999 SCT059/// 19/05 Q1016
  • 071350Z AUTO 29011KT 250V320 9999 SCT059/// 18/05 Q1016
  • 071320Z AUTO 27010KT 240V300 9999 FEW061/// 19/06 Q1016
  • 071250Z AUTO 28009KT 230V320 9999 FEW061/// 19/05 Q1016

Expired Forecast.



MET'MAP, your aeronautical weather chart ! - Copyright ORBIFLY December 2007 - Disclaimer

ORBIFLY MET'MAP TEAM :

Programming & Development : Alexandra Zaïnal
Original concept : Baudouin d'Aumeries
Technical & hardware support : Manuel Goepfert
Assistance : Marc-Olivier Méhu




SOURCES & CREDITS :

   NOAA